Time;durP1;ratioP1;P1;durP2;ratioP2;P2;SDS_P1;SDS_P2;PMS_P1;PMS_P2;Temp;Humidity;BMP_temperature;BMP_pressure;BME280_temperature;BME280_humidity;BME280_pressure;Samples;Min_cycle;Max_cycle;Signal;HPM_P1;HPM_P2
2023/06/23 00:01:01;;;;;;;;;;;22.60;86.20;;;;;;5094098;28;20003;-69
2023/06/23 00:03:26;;;;;;;;;;;22.40;86.80;;;;;;5094465;28;19914;-69
2023/06/23 00:05:52;;;;;;;;;;;22.40;87.50;;;;;;5093912;28;20370;-69
2023/06/23 00:08:17;;;;;;;;;;;22.30;87.40;;;;;;5094205;28;19944;-69
2023/06/23 00:10:47;;;;;;;;;;;22.10;88.50;;;;;;5094204;28;19908;-69
2023/06/23 00:13:13;;;;;;;;;;;22.00;88.00;;;;;;5093827;28;20415;-69
2023/06/23 00:15:38;;;;;;;;;;;21.90;89.30;;;;;;5093751;28;19908;-69
2023/06/23 00:18:04;;;;;;;;;;;21.90;87.50;;;;;;5093839;28;19953;-69
2023/06/23 00:20:30;;;;;;;;;;;21.90;87.40;;;;;;5094426;28;20003;-69
2023/06/23 00:22:55;;;;;;;;;;;21.90;87.50;;;;;;5093817;28;20380;-69
2023/06/23 00:25:21;;;;;;;;;;;21.80;86.40;;;;;;5093693;28;20277;-69
2023/06/23 00:27:47;;;;;;;;;;;21.80;85.60;;;;;;5093807;28;19908;-69
2023/06/23 00:30:13;;;;;;;;;;;21.80;84.70;;;;;;5092581;28;19915;-69
2023/06/23 00:32:39;;;;;;;;;;;21.80;84.70;;;;;;5093705;28;19909;-69
2023/06/23 00:35:05;;;;;;;;;;;21.80;84.00;;;;;;5093607;28;19908;-69
2023/06/23 00:37:39;;;;;;;;;;;21.70;85.30;;;;;;5095590;28;20008;-69
2023/06/23 00:40:10;;;;;;;;;;;21.60;86.40;;;;;;5097940;28;19908;-69
2023/06/23 00:43:02;;;;;;;;;;;21.40;87.40;;;;;;5098108;28;19908;-69
2023/06/23 00:45:30;;;;;;;;;;;21.20;90.10;;;;;;5097168;28;19984;-69
2023/06/23 00:47:58;;;;;;;;;;;21.00;90.70;;;;;;5097430;28;19936;-69
2023/06/23 00:50:24;;;;;;;;;;;20.80;91.30;;;;;;5097872;28;19908;-70
2023/06/23 00:52:53;;;;;;;;;;;20.70;91.60;;;;;;5097455;28;19908;-70
2023/06/23 00:55:20;;;;;;;;;;;20.50;92.10;;;;;;5097281;28;19995;-70
2023/06/23 00:57:56;;;;;;;;;;;20.40;92.70;;;;;;5095954;28;19954;-70
2023/06/23 01:00:24;;;;;;;;;;;20.30;93.00;;;;;;5097633;28;20349;-70
2023/06/23 01:03:03;;;;;;;;;;;20.20;93.70;;;;;;5096040;28;19915;-70
2023/06/23 01:05:36;;;;;;;;;;;20.10;94.60;;;;;;5097726;28;20334;-70
2023/06/23 01:08:25;;;;;;;;;;;19.90;95.80;;;;;;5097187;28;19987;-70
2023/06/23 01:10:57;;;;;;;;;;;19.90;96.40;;;;;;5097155;28;19904;-70
2023/06/23 01:13:48;;;;;;;;;;;19.90;98.80;;;;;;5095881;28;19912;-69
2023/06/23 01:16:32;;;;;;;;;;;20.00;99.90;;;;;;5096924;28;19908;-68
2023/06/23 01:19:09;;;;;;;;;;;19.90;99.90;;;;;;5096715;28;19908;-69
2023/06/23 01:21:52;;;;;;;;;;;19.90;99.90;;;;;;5097074;28;19960;-69
2023/06/23 01:24:50;;;;;;;;;;;19.80;99.90;;;;;;5096497;28;19911;-68
2023/06/23 01:27:55;;;;;;;;;;;19.60;99.90;;;;;;5089301;28;19961;-69
2023/06/23 01:30:26;;;;;;;;;;;19.50;99.90;;;;;;5054968;28;19928;-69
2023/06/23 01:32:56;;;;;;;;;;;19.40;99.90;;;;;;5055307;28;19905;-69
2023/06/23 01:35:31;;;;;;;;;;;19.30;99.90;;;;;;5054334;28;19966;-69
2023/06/23 01:38:04;;;;;;;;;;;19.30;99.90;;;;;;5065994;28;19939;-69
2023/06/23 01:40:32;;;;;;;;;;;19.20;99.90;;;;;;5096704;28;20273;-70
2023/06/23 01:43:06;;;;;;;;;;;19.10;99.90;;;;;;5094978;28;19908;-69
2023/06/23 01:45:39;;;;;;;;;;;19.10;99.90;;;;;;5096364;28;20285;-69
2023/06/23 01:48:08;;;;;;;;;;;19.00;99.90;;;;;;5095582;28;19954;-69
2023/06/23 01:50:37;;;;;;;;;;;19.00;99.90;;;;;;5096070;28;19904;-69
2023/06/23 01:53:10;;;;;;;;;;;18.90;99.90;;;;;;5095341;28;19957;-69
2023/06/23 01:55:44;;;;;;;;;;;18.90;99.90;;;;;;5095240;28;19912;-69
2023/06/23 01:58:13;;;;;;;;;;;19.00;99.90;;;;;;5096318;28;19910;-70
2023/06/23 02:00:41;;;;;;;;;;;19.00;99.90;;;;;;5095209;28;20282;-70
2023/06/23 02:03:08;;;;;;;;;;;19.00;99.90;;;;;;5078644;28;19908;-70
2023/06/23 02:05:39;;;;;;;;;;;19.00;99.90;;;;;;5078008;28;20343;-70
2023/06/23 02:08:12;;;;;;;;;;;19.00;99.90;;;;;;5095277;28;20365;-70
2023/06/23 02:10:39;;;;;;;;;;;19.00;99.90;;;;;;5095528;28;19908;-69
2023/06/23 02:13:11;;;;;;;;;;;19.00;99.90;;;;;;5094575;28;20007;-70
2023/06/23 02:15:42;;;;;;;;;;;18.90;99.90;;;;;;5095745;28;19915;-70
2023/06/23 02:18:09;;;;;;;;;;;18.90;99.90;;;;;;5094718;28;19931;-70
2023/06/23 02:20:37;;;;;;;;;;;18.80;99.90;;;;;;5095434;28;19908;-70
2023/06/23 02:23:05;;;;;;;;;;;18.80;99.90;;;;;;5094633;28;19915;-70
2023/06/23 02:25:54;;;;;;;;;;;18.70;99.90;;;;;;5095886;28;19909;-70
2023/06/23 02:28:23;;;;;;;;;;;18.70;99.90;;;;;;5096041;28;20328;-70
2023/06/23 02:30:49;;;;;;;;;;;18.70;99.90;;;;;;5096230;28;19910;-70
2023/06/23 02:33:19;;;;;;;;;;;18.70;99.90;;;;;;5095485;28;19938;-70
2023/06/23 02:35:52;;;;;;;;;;;18.70;99.90;;;;;;5095481;28;19908;-70
2023/06/23 02:38:24;;;;;;;;;;;18.70;99.90;;;;;;5095863;28;19910;-70
2023/06/23 02:40:58;;;;;;;;;;;18.60;99.90;;;;;;5095051;28;19908;-70
2023/06/23 02:43:30;;;;;;;;;;;18.60;99.90;;;;;;5094666;28;19904;-70
2023/06/23 02:46:05;;;;;;;;;;;18.60;99.90;;;;;;5095485;28;20324;-70
2023/06/23 02:48:38;;;;;;;;;;;18.70;99.90;;;;;;5095402;28;20070;-70
2023/06/23 02:51:09;;;;;;;;;;;18.70;99.90;;;;;;5095577;28;19911;-70
2023/06/23 02:53:51;;;;;;;;;;;18.70;99.90;;;;;;5095357;28;19904;-70
2023/06/23 02:56:22;;;;;;;;;;;18.50;99.90;;;;;;5115507;28;19998;-70
2023/06/23 02:58:50;;;;;;;;;;;18.50;99.90;;;;;;5114565;28;20368;-70
2023/06/23 03:01:22;;;;;;;;;;;18.40;99.90;;;;;;5115457;28;19903;-70
2023/06/23 03:03:52;;;;;;;;;;;18.40;99.90;;;;;;5114605;28;19914;-70
2023/06/23 03:06:19;;;;;;;;;;;18.20;99.90;;;;;;5115395;27;20342;-70
2023/06/23 03:08:46;;;;;;;;;;;18.20;99.90;;;;;;5114115;28;19990;-70
2023/06/23 03:11:22;;;;;;;;;;;18.00;99.90;;;;;;5114639;28;19910;-70
2023/06/23 03:13:50;;;;;;;;;;;17.90;99.90;;;;;;5115237;28;19918;-70
2023/06/23 03:16:37;;;;;;;;;;;17.90;99.90;;;;;;5115418;28;20044;-70
2023/06/23 03:19:23;;;;;;;;;;;17.80;99.90;;;;;;5113799;28;19915;-70
2023/06/23 03:22:02;;;;;;;;;;;17.70;99.90;;;;;;5115005;28;19911;-70
2023/06/23 03:24:42;;;;;;;;;;;17.60;99.90;;;;;;5115000;28;19960;-70
2023/06/23 03:27:10;;;;;;;;;;;17.50;99.90;;;;;;5115257;28;19904;-70
2023/06/23 03:30:12;;;;;;;;;;;17.40;99.90;;;;;;5114822;28;19903;-70
2023/06/23 03:32:54;;;;;;;;;;;17.40;99.90;;;;;;5112048;28;19908;-70
2023/06/23 03:35:22;;;;;;;;;;;17.20;99.90;;;;;;5115646;28;19915;-70
2023/06/23 03:37:53;;;;;;;;;;;17.20;99.90;;;;;;5114820;28;19903;-70
2023/06/23 03:40:23;;;;;;;;;;;17.20;99.90;;;;;;5113389;28;19908;-70
2023/06/23 03:42:59;;;;;;;;;;;17.20;99.90;;;;;;5114574;28;19987;-69
2023/06/23 03:45:32;;;;;;;;;;;17.30;99.90;;;;;;5114580;28;20397;-70
2023/06/23 03:48:07;;;;;;;;;;;17.30;99.90;;;;;;5113887;28;19903;-70
2023/06/23 03:50:35;;;;;;;;;;;17.30;99.90;;;;;;5115002;28;19929;-70
2023/06/23 03:53:06;;;;;;;;;;;17.40;99.90;;;;;;5114547;28;19994;-70
2023/06/23 03:55:33;;;;;;;;;;;17.50;99.90;;;;;;5113180;28;20292;-70
2023/06/23 03:58:05;;;;;;;;;;;17.60;99.90;;;;;;5114298;28;19903;-70
2023/06/23 04:00:54;;;;;;;;;;;17.50;99.90;;;;;;5113957;28;19904;-70
2023/06/23 04:03:27;;;;;;;;;;;17.60;99.90;;;;;;5114397;28;19903;-70
2023/06/23 04:05:55;;;;;;;;;;;17.60;99.90;;;;;;5113064;28;19904;-70
2023/06/23 04:08:23;;;;;;;;;;;17.60;99.90;;;;;;5114286;28;19908;-70
2023/06/23 04:10:59;;;;;;;;;;;17.60;99.90;;;;;;5114619;28;19912;-70
2023/06/23 04:13:37;;;;;;;;;;;17.60;99.90;;;;;;5113780;28;19908;-70
2023/06/23 04:16:28;;;;;;;;;;;17.70;99.90;;;;;;5112707;28;19908;-70
2023/06/23 04:19:04;;;;;;;;;;;17.70;99.90;;;;;;5113008;28;20289;-70
2023/06/23 04:21:35;;;;;;;;;;;17.80;99.90;;;;;;5112380;28;19927;-70
2023/06/23 04:24:06;;;;;;;;;;;17.80;99.90;;;;;;5112965;28;19907;-70
2023/06/23 04:26:39;;;;;;;;;;;17.80;99.90;;;;;;5114147;28;20379;-70
2023/06/23 04:29:13;;;;;;;;;;;17.70;99.90;;;;;;5113955;28;19986;-70
2023/06/23 04:32:04;;;;;;;;;;;17.70;99.90;;;;;;5112864;28;19908;-70
2023/06/23 04:34:35;;;;;;;;;;;17.80;99.90;;;;;;5113721;28;19955;-70
2023/06/23 04:37:58;;;;;;;;;;;17.80;99.90;;;;;;5113789;28;19930;-70
2023/06/23 04:40:52;;;;;;;;;;;17.70;99.90;;;;;;5031355;28;19996;-70
2023/06/23 04:43:44;;;;;;;;;;;17.60;99.90;;;;;;5018300;28;19913;-70
2023/06/23 04:46:22;;;;;;;;;;;17.50;99.90;;;;;;5030957;28;19913;-70
2023/06/23 04:49:10;;;;;;;;;;;17.50;99.90;;;;;;5080981;28;19903;-70
2023/06/23 04:51:51;;;;;;;;;;;17.40;99.90;;;;;;5114242;28;19904;-70
2023/06/23 04:54:20;;;;;;;;;;;17.40;99.90;;;;;;5111680;28;19964;-70
2023/06/23 04:56:50;;;;;;;;;;;17.40;99.90;;;;;;5111959;28;19904;-70
2023/06/23 04:59:22;;;;;;;;;;;17.30;99.90;;;;;;5113399;28;19911;-70
2023/06/23 05:01:52;;;;;;;;;;;17.20;99.90;;;;;;5112250;28;19939;-70
2023/06/23 05:04:35;;;;;;;;;;;17.10;99.90;;;;;;5112478;28;19911;-70
2023/06/23 05:07:14;;;;;;;;;;;17.00;99.90;;;;;;5113881;28;19907;-70
2023/06/23 05:09:50;;;;;;;;;;;17.00;99.90;;;;;;5113693;28;19908;-70
2023/06/23 05:12:24;;;;;;;;;;;17.00;99.90;;;;;;5113844;28;19904;-70
2023/06/23 05:14:54;;;;;;;;;;;17.00;99.90;;;;;;5113619;28;19970;-70
2023/06/23 05:17:25;;;;;;;;;;;17.00;99.90;;;;;;5113165;28;19926;-70
2023/06/23 05:19:57;;;;;;;;;;;17.00;99.90;;;;;;5112235;28;19915;-70
2023/06/23 05:22:40;;;;;;;;;;;17.00;99.90;;;;;;5113204;28;20406;-70
2023/06/23 05:25:11;;;;;;;;;;;16.90;99.90;;;;;;5115944;28;19904;-70
2023/06/23 05:27:45;;;;;;;;;;;16.90;99.90;;;;;;5116563;28;19904;-70
2023/06/23 05:30:28;;;;;;;;;;;16.90;99.90;;;;;;5116295;28;20340;-70
2023/06/23 05:33:21;;;;;;;;;;;16.90;99.90;;;;;;5116015;28;24141;-70
2023/06/23 05:35:56;;;;;;;;;;;16.90;99.90;;;;;;5116481;28;19908;-69
2023/06/23 05:38:31;;;;;;;;;;;17.10;99.90;;;;;;5098826;28;19912;-69
2023/06/23 05:41:01;;;;;;;;;;;17.20;99.90;;;;;;5115953;28;19903;-69
2023/06/23 05:43:36;;;;;;;;;;;17.30;99.90;;;;;;5116470;28;19908;-69
2023/06/23 05:46:10;;;;;;;;;;;17.30;99.90;;;;;;5116071;28;20268;-69
2023/06/23 05:49:09;;;;;;;;;;;17.40;99.90;;;;;;5115320;28;19915;-69
2023/06/23 05:51:40;;;;;;;;;;;17.40;99.90;;;;;;5116039;28;19910;-69
2023/06/23 05:54:13;;;;;;;;;;;17.50;99.90;;;;;;5115717;28;19903;-69
2023/06/23 05:56:49;;;;;;;;;;;17.40;99.90;;;;;;5115338;28;20007;-70
2023/06/23 05:59:36;;;;;;;;;;;17.40;99.90;;;;;;5116365;27;19903;-70
2023/06/23 06:02:07;;;;;;;;;;;17.40;99.90;;;;;;5115059;28;20284;-70
2023/06/23 06:04:43;;;;;;;;;;;17.30;99.90;;;;;;5108390;28;19904;-70
2023/06/23 06:07:22;;;;;;;;;;;17.30;99.90;;;;;;5114001;28;19911;-70
2023/06/23 06:09:57;;;;;;;;;;;17.30;99.90;;;;;;5081301;28;24068;-70
2023/06/23 06:12:29;;;;;;;;;;;17.30;99.90;;;;;;5114367;28;19939;-69
2023/06/23 06:15:14;;;;;;;;;;;17.30;99.90;;;;;;5096210;28;20008;-69
2023/06/23 06:17:51;;;;;;;;;;;17.30;99.90;;;;;;5114685;28;19908;-69
2023/06/23 06:20:20;;;;;;;;;;;17.40;99.90;;;;;;5113270;28;19915;-69
2023/06/23 06:22:47;;;;;;;;;;;17.40;99.90;;;;;;5113999;28;20314;-69
2023/06/23 06:25:20;;;;;;;;;;;17.50;99.90;;;;;;5113911;28;19904;-70
2023/06/23 06:28:04;;;;;;;;;;;17.50;99.90;;;;;;5114190;28;24088;-70
2023/06/23 06:30:37;;;;;;;;;;;17.50;99.90;;;;;;5113609;28;20354;-70
2023/06/23 06:33:14;;;;;;;;;;;17.50;99.90;;;;;;5114657;28;19910;-70
2023/06/23 06:35:45;;;;;;;;;;;17.50;99.90;;;;;;5114103;28;19912;-70
2023/06/23 06:38:23;;;;;;;;;;;17.50;99.90;;;;;;5114762;28;19929;-70
2023/06/23 06:41:01;;;;;;;;;;;17.50;99.90;;;;;;5114039;28;19903;-70
2023/06/23 06:43:29;;;;;;;;;;;17.40;99.90;;;;;;5112615;28;19910;-70
2023/06/23 06:46:02;;;;;;;;;;;17.40;99.90;;;;;;5112856;28;19904;-70
2023/06/23 06:48:50;;;;;;;;;;;17.40;99.90;;;;;;5112472;28;19910;-70
2023/06/23 06:51:27;;;;;;;;;;;17.40;99.90;;;;;;5113872;27;19907;-70
2023/06/23 06:53:56;;;;;;;;;;;17.40;99.90;;;;;;5113964;28;19910;-70
2023/06/23 06:56:38;;;;;;;;;;;17.50;99.90;;;;;;5112821;28;19911;-70
2023/06/23 06:59:16;;;;;;;;;;;17.50;99.90;;;;;;5113887;28;19903;-71
2023/06/23 07:02:12;;;;;;;;;;;17.50;99.90;;;;;;5111173;28;19918;-71
2023/06/23 07:04:50;;;;;;;;;;;17.50;99.90;;;;;;5113980;28;19933;-70
2023/06/23 07:07:29;;;;;;;;;;;17.50;99.90;;;;;;5113774;28;19982;-71
2023/06/23 07:10:06;;;;;;;;;;;17.50;99.90;;;;;;5111433;28;20002;-71
2023/06/23 07:12:40;;;;;;;;;;;17.40;99.90;;;;;;5113427;28;24067;-70
2023/06/23 07:15:16;;;;;;;;;;;17.40;99.90;;;;;;5113336;28;20281;-70
2023/06/23 07:17:53;;;;;;;;;;;17.40;99.90;;;;;;5113259;28;20265;-71
2023/06/23 07:20:55;;;;;;;;;;;17.40;99.90;;;;;;5113336;28;19942;-70
2023/06/23 07:23:32;;;;;;;;;;;17.50;99.90;;;;;;5113203;28;19904;-70
2023/06/23 07:26:01;;;;;;;;;;;17.40;99.90;;;;;;5113568;28;19908;-70
2023/06/23 07:28:49;;;;;;;;;;;17.40;99.90;;;;;;5112358;28;20262;-70
2023/06/23 07:32:04;;;;;;;;;;;17.20;99.90;;;;;;5105757;28;19912;-70
2023/06/23 07:34:56;;;;;;;;;;;17.10;99.90;;;;;;5112575;28;19914;-70
2023/06/23 07:37:26;;;;;;;;;;;17.10;99.90;;;;;;5112617;28;19908;-69
2023/06/23 07:40:07;;;;;;;;;;;17.10;99.90;;;;;;5112019;28;19908;-70
2023/06/23 07:42:58;;;;;;;;;;;17.20;99.90;;;;;;5110382;28;19915;-69
2023/06/23 07:45:32;;;;;;;;;;;17.20;99.90;;;;;;5112831;28;24052;-70
2023/06/23 07:48:08;;;;;;;;;;;17.30;99.90;;;;;;5111412;28;19919;-70
2023/06/23 07:50:40;;;;;;;;;;;17.30;99.90;;;;;;5109637;28;20305;-70
2023/06/23 07:53:12;;;;;;;;;;;17.40;99.90;;;;;;5113078;28;19904;-70
2023/06/23 07:55:42;;;;;;;;;;;17.40;99.90;;;;;;5096820;28;19934;-70
2023/06/23 07:58:18;;;;;;;;;;;17.40;99.90;;;;;;5113324;28;19968;-70
2023/06/23 08:00:46;;;;;;;;;;;17.50;99.90;;;;;;5113399;28;19931;-70
2023/06/23 08:03:13;;;;;;;;;;;17.50;99.90;;;;;;5113637;28;19953;-70
2023/06/23 08:05:45;;;;;;;;;;;17.60;99.90;;;;;;5112823;28;19915;-70
2023/06/23 08:08:13;;;;;;;;;;;17.60;99.90;;;;;;5112500;28;19907;-70
2023/06/23 08:10:44;;;;;;;;;;;17.60;99.90;;;;;;5061644;28;25069;-70
2023/06/23 08:13:19;;;;;;;;;;;17.60;99.90;;;;;;5111428;28;19934;-71
2023/06/23 08:15:54;;;;;;;;;;;17.70;99.90;;;;;;5112326;28;19912;-70
2023/06/23 08:18:56;;;;;;;;;;;17.70;99.90;;;;;;5111079;28;24118;-70
2023/06/23 08:22:04;;;;;;;;;;;17.80;99.90;;;;;;5112412;28;20067;-70
2023/06/23 08:24:42;;;;;;;;;;;17.90;99.90;;;;;;5112268;28;19956;-69
2023/06/23 08:27:15;;;;;;;;;;;17.90;99.90;;;;;;5111415;28;20345;-70
2023/06/23 08:29:42;;;;;;;;;;;18.00;99.90;;;;;;5111597;28;19903;-70
2023/06/23 08:32:10;;;;;;;;;;;18.00;99.90;;;;;;5110091;28;19908;-70
2023/06/23 08:35:04;;;;;;;;;;;18.00;99.90;;;;;;5089488;28;19915;-70
2023/06/23 08:37:40;;;;;;;;;;;18.10;99.90;;;;;;5112137;28;24064;-70
2023/06/23 08:40:16;;;;;;;;;;;18.10;99.90;;;;;;5112420;28;19903;-69
2023/06/23 08:42:44;;;;;;;;;;;18.20;99.90;;;;;;5091003;28;19911;-69
2023/06/23 08:45:17;;;;;;;;;;;18.20;99.90;;;;;;5108653;28;20006;-69
2023/06/23 08:47:49;;;;;;;;;;;18.30;99.90;;;;;;5090735;28;19964;-70
2023/06/23 08:50:20;;;;;;;;;;;18.30;99.90;;;;;;5111536;28;19907;-70
2023/06/23 08:53:01;;;;;;;;;;;18.40;99.90;;;;;;5094767;28;19908;-71
2023/06/23 08:55:42;;;;;;;;;;;18.30;99.90;;;;;;5111684;28;19911;-72
2023/06/23 08:58:37;;;;;;;;;;;18.20;99.90;;;;;;5113830;28;19910;-71
2023/06/23 09:01:10;;;;;;;;;;;18.20;99.90;;;;;;5116856;28;19904;-71
2023/06/23 09:03:38;;;;;;;;;;;18.10;99.90;;;;;;5117056;28;19992;-70
2023/06/23 09:06:25;;;;;;;;;;;18.00;99.90;;;;;;5113587;28;19954;-71
2023/06/23 09:08:57;;;;;;;;;;;18.00;99.90;;;;;;5116724;27;20037;-71
2023/06/23 09:11:49;;;;;;;;;;;17.90;99.90;;;;;;5115606;28;19904;-71
2023/06/23 09:14:19;;;;;;;;;;;17.90;99.90;;;;;;5116610;28;19912;-70
2023/06/23 09:16:47;;;;;;;;;;;17.80;99.90;;;;;;5118676;27;25132;-71
2023/06/23 09:19:14;;;;;;;;;;;17.80;99.90;;;;;;5116259;27;19994;-70
2023/06/23 09:22:03;;;;;;;;;;;17.80;99.90;;;;;;5115090;28;19908;-70
2023/06/23 09:24:47;;;;;;;;;;;17.70;99.90;;;;;;5111448;28;19911;-69
2023/06/23 09:27:47;;;;;;;;;;;17.60;99.90;;;;;;5114465;28;19914;-70
2023/06/23 09:30:16;;;;;;;;;;;17.40;99.90;;;;;;5115542;28;20048;-70
2023/06/23 09:32:48;;;;;;;;;;;17.40;99.90;;;;;;5116029;28;20376;-69
2023/06/23 09:35:25;;;;;;;;;;;17.40;99.90;;;;;;5113687;28;19933;-70
2023/06/23 09:38:03;;;;;;;;;;;17.50;99.90;;;;;;5115909;28;19903;-69
2023/06/23 09:40:38;;;;;;;;;;;17.60;99.90;;;;;;5114459;28;19916;-70
2023/06/23 09:43:07;;;;;;;;;;;17.70;99.90;;;;;;5115550;27;19904;-70
2023/06/23 09:45:36;;;;;;;;;;;17.90;99.90;;;;;;5116840;28;19904;-70
2023/06/23 09:48:05;;;;;;;;;;;18.00;99.90;;;;;;5114202;28;19916;-70
2023/06/23 09:50:37;;;;;;;;;;;18.10;99.90;;;;;;5115216;27;25119;-70
2023/06/23 09:53:04;;;;;;;;;;;18.20;99.90;;;;;;5114793;28;19951;-69
2023/06/23 09:55:38;;;;;;;;;;;18.30;99.90;;;;;;5114304;28;19933;-70
2023/06/23 09:58:29;;;;;;;;;;;18.50;99.90;;;;;;5114956;28;20488;-70
2023/06/23 10:01:26;;;;;;;;;;;18.70;99.90;;;;;;5116013;28;19907;-69
2023/06/23 10:03:58;;;;;;;;;;;18.70;99.90;;;;;;5114822;28;20357;-69
2023/06/23 10:06:28;;;;;;;;;;;18.80;99.90;;;;;;5114912;28;24053;-69
2023/06/23 10:09:05;;;;;;;;;;;18.80;99.90;;;;;;5112053;28;20358;-69
2023/06/23 10:11:37;;;;;;;;;;;18.90;99.90;;;;;;5108686;27;20350;-69
2023/06/23 10:14:07;;;;;;;;;;;19.10;99.90;;;;;;5112101;28;24067;-69
2023/06/23 10:16:41;;;;;;;;;;;19.30;99.90;;;;;;5114051;28;19907;-69
2023/06/23 10:19:10;;;;;;;;;;;19.40;99.90;;;;;;5114964;28;19903;-70
2023/06/23 10:21:42;;;;;;;;;;;19.50;99.90;;;;;;5110949;28;19904;-70
2023/06/23 10:24:14;;;;;;;;;;;19.50;99.90;;;;;;5114797;28;19910;-70
2023/06/23 10:26:51;;;;;;;;;;;19.50;99.90;;;;;;5113747;28;19956;-70
2023/06/23 10:29:27;;;;;;;;;;;19.50;99.90;;;;;;5114983;28;19904;-70
2023/06/23 10:31:59;;;;;;;;;;;19.50;99.90;;;;;;5114966;28;19986;-70
2023/06/23 10:34:28;;;;;;;;;;;19.60;99.90;;;;;;5113446;28;19907;-71
2023/06/23 10:36:57;;;;;;;;;;;19.70;99.90;;;;;;5114968;28;19939;-71
2023/06/23 10:39:26;;;;;;;;;;;19.70;99.90;;;;;;5114258;28;19911;-71
2023/06/23 10:41:58;;;;;;;;;;;19.70;99.90;;;;;;5113490;28;20372;-71
2023/06/23 10:44:30;;;;;;;;;;;19.80;99.90;;;;;;5113597;28;19903;-71
2023/06/23 10:46:56;;;;;;;;;;;19.90;99.90;;;;;;5114244;28;24147;-72
2023/06/23 10:49:21;;;;;;;;;;;19.90;99.90;;;;;;5113840;28;19904;-72
2023/06/23 10:51:47;;;;;;;;;;;19.90;99.90;;;;;;5114343;28;24132;-73
2023/06/23 10:54:24;;;;;;;;;;;20.00;99.90;;;;;;5114054;28;19912;-73
2023/06/23 10:56:50;;;;;;;;;;;20.00;99.90;;;;;;5114159;28;20421;-73
2023/06/23 10:59:16;;;;;;;;;;;20.00;99.90;;;;;;5114150;28;19904;-73
2023/06/23 11:02:07;;;;;;;;;;;20.00;99.90;;;;;;5113896;28;20289;-72
2023/06/23 11:04:49;;;;;;;;;;;20.00;99.90;;;;;;5113703;28;20048;-72
2023/06/23 11:07:14;;;;;;;;;;;20.10;99.90;;;;;;5113726;28;19903;-73
2023/06/23 11:09:57;;;;;;;;;;;20.20;99.90;;;;;;5113387;27;20289;-73
2023/06/23 11:12:48;;;;;;;;;;;20.20;99.90;;;;;;5114609;28;19907;-73
2023/06/23 11:15:25;;;;;;;;;;;20.10;99.90;;;;;;5112786;28;19916;-72
2023/06/23 11:17:50;;;;;;;;;;;20.20;99.90;;;;;;5114058;28;20265;-73
2023/06/23 11:20:22;;;;;;;;;;;20.10;99.90;;;;;;5113519;28;24075;-73
2023/06/23 11:22:56;;;;;;;;;;;20.10;99.90;;;;;;5112600;28;19904;-73
2023/06/23 11:25:22;;;;;;;;;;;20.20;99.90;;;;;;5113429;28;25098;-73
2023/06/23 11:28:08;;;;;;;;;;;20.20;99.90;;;;;;5114028;28;19908;-73
2023/06/23 11:30:50;;;;;;;;;;;20.20;99.90;;;;;;5113526;28;24061;-73
2023/06/23 11:33:28;;;;;;;;;;;20.30;99.90;;;;;;5113762;28;19904;-73
2023/06/23 11:35:54;;;;;;;;;;;20.40;99.90;;;;;;5113302;28;19914;-73
2023/06/23 11:38:19;;;;;;;;;;;20.60;99.90;;;;;;5113257;28;20004;-73
2023/06/23 11:40:46;;;;;;;;;;;20.70;99.90;;;;;;5113995;28;24138;-73
2023/06/23 11:43:13;;;;;;;;;;;20.80;99.90;;;;;;5113427;28;24069;-74
2023/06/23 11:45:44;;;;;;;;;;;21.00;99.90;;;;;;5101078;28;24071;-73
2023/06/23 11:48:10;;;;;;;;;;;21.10;99.90;;;;;;5102578;28;24109;-73
2023/06/23 11:50:36;;;;;;;;;;;21.30;99.90;;;;;;5110078;28;19954;-73
2023/06/23 11:53:01;;;;;;;;;;;21.30;99.90;;;;;;5114466;28;19912;-74
2023/06/23 11:55:27;;;;;;;;;;;21.30;99.90;;;;;;5114148;28;20383;-73
2023/06/23 11:57:53;;;;;;;;;;;21.30;99.90;;;;;;5114487;28;19933;-74
2023/06/23 12:00:22;;;;;;;;;;;21.40;99.90;;;;;;5114711;28;20262;-74
2023/06/23 12:02:49;;;;;;;;;;;21.50;99.90;;;;;;5114493;28;19904;-74
2023/06/23 12:05:15;;;;;;;;;;;21.60;99.90;;;;;;5114399;28;19904;-74
2023/06/23 12:07:40;;;;;;;;;;;21.60;99.90;;;;;;5114641;28;19915;-74
2023/06/23 12:10:06;;;;;;;;;;;21.70;99.90;;;;;;5114345;28;19908;-74
2023/06/23 12:12:32;;;;;;;;;;;21.70;99.90;;;;;;5114354;28;19912;-74
2023/06/23 12:15:01;;;;;;;;;;;21.80;99.90;;;;;;5114078;28;19953;-74
2023/06/23 12:17:26;;;;;;;;;;;21.80;99.90;;;;;;5114601;28;19927;-74
2023/06/23 12:19:52;;;;;;;;;;;21.80;99.90;;;;;;5114584;28;20364;-73
2023/06/23 12:22:18;;;;;;;;;;;21.80;99.90;;;;;;5114283;28;19914;-74
2023/06/23 12:24:44;;;;;;;;;;;21.70;99.90;;;;;;5114295;28;20246;-73
2023/06/23 12:27:10;;;;;;;;;;;21.70;99.90;;;;;;5114423;28;19990;-74
2023/06/23 12:29:36;;;;;;;;;;;21.60;99.90;;;;;;5114168;28;19904;-74
2023/06/23 12:32:02;;;;;;;;;;;21.50;99.90;;;;;;5112941;28;20344;-74
2023/06/23 12:34:32;;;;;;;;;;;21.40;99.90;;;;;;5117719;28;20342;-74
2023/06/23 12:37:05;;;;;;;;;;;21.30;99.90;;;;;;5117139;28;19990;-74
2023/06/23 12:39:30;;;;;;;;;;;21.20;99.90;;;;;;5118374;28;19908;-74
2023/06/23 12:41:57;;;;;;;;;;;21.00;99.90;;;;;;5118312;28;20372;-74
2023/06/23 12:44:25;;;;;;;;;;;20.80;99.90;;;;;;5113307;27;19947;-72
2023/06/23 12:46:52;;;;;;;;;;;20.70;99.90;;;;;;5099618;28;20006;-73
2023/06/23 12:49:18;;;;;;;;;;;20.50;99.90;;;;;;5104036;28;20334;-73
2023/06/23 12:51:46;;;;;;;;;;;20.40;99.90;;;;;;5117107;28;19965;-73
2023/06/23 12:54:11;;;;;;;;;;;20.40;99.90;;;;;;5118062;28;20307;-73
2023/06/23 12:56:37;;;;;;;;;;;20.40;99.90;;;;;;5118228;28;20002;-74
2023/06/23 12:59:02;;;;;;;;;;;20.40;99.90;;;;;;5116721;28;19920;-73
2023/06/23 13:01:28;;;;;;;;;;;20.50;99.90;;;;;;5107052;28;19968;-72
2023/06/23 13:03:53;;;;;;;;;;;20.60;99.90;;;;;;5106419;27;19974;-72
2023/06/23 13:06:19;;;;;;;;;;;20.70;99.90;;;;;;5116580;28;20365;-73
2023/06/23 13:08:45;;;;;;;;;;;20.80;99.90;;;;;;5117867;28;19927;-73
2023/06/23 13:11:11;;;;;;;;;;;21.00;99.90;;;;;;5117571;28;20326;-72
2023/06/23 13:13:36;;;;;;;;;;;21.20;99.90;;;;;;5098109;28;19930;-72
2023/06/23 13:16:02;;;;;;;;;;;21.30;99.90;;;;;;5116383;28;19968;-73
2023/06/23 13:18:27;;;;;;;;;;;21.20;99.90;;;;;;5116859;28;20357;-72
2023/06/23 13:20:53;;;;;;;;;;;21.10;99.90;;;;;;5104254;28;20388;-72
2023/06/23 13:23:19;;;;;;;;;;;21.10;99.90;;;;;;5097015;28;19939;-73
2023/06/23 13:25:44;;;;;;;;;;;21.00;99.90;;;;;;5097011;28;19974;-73
2023/06/23 13:28:10;;;;;;;;;;;20.90;99.90;;;;;;5097021;28;19909;-73
2023/06/23 13:30:35;;;;;;;;;;;20.90;99.90;;;;;;5096935;28;19994;-73
2023/06/23 13:33:01;;;;;;;;;;;20.90;99.90;;;;;;5097181;28;19973;-73
2023/06/23 13:35:27;;;;;;;;;;;20.80;99.90;;;;;;5096785;28;19989;-73
2023/06/23 13:37:55;;;;;;;;;;;20.70;99.90;;;;;;5096882;28;19912;-73
2023/06/23 13:40:21;;;;;;;;;;;20.60;99.90;;;;;;5096818;28;19915;-73
2023/06/23 13:42:47;;;;;;;;;;;20.40;99.90;;;;;;5096776;28;19903;-72
2023/06/23 13:45:12;;;;;;;;;;;20.30;99.90;;;;;;5095627;28;20354;-73
2023/06/23 13:47:38;;;;;;;;;;;20.20;99.90;;;;;;5096664;28;19916;-73
2023/06/23 13:50:11;;;;;;;;;;;20.20;99.90;;;;;;5095335;28;20324;-73
2023/06/23 13:52:46;;;;;;;;;;;20.10;99.90;;;;;;5096663;28;19904;-72
2023/06/23 13:55:12;;;;;;;;;;;20.00;99.90;;;;;;5096677;28;19947;-73
2023/06/23 13:57:37;;;;;;;;;;;20.10;99.90;;;;;;5097000;28;19904;-73
2023/06/23 14:00:08;;;;;;;;;;;20.10;99.90;;;;;;5096340;28;19908;-73
2023/06/23 14:02:36;;;;;;;;;;;20.10;99.90;;;;;;5096655;28;19904;-73
2023/06/23 14:05:02;;;;;;;;;;;20.10;99.90;;;;;;5096221;28;19904;-72
2023/06/23 14:07:28;;;;;;;;;;;20.20;99.90;;;;;;5096212;28;19950;-73
2023/06/23 14:09:54;;;;;;;;;;;20.10;99.90;;;;;;5095929;28;19912;-73
2023/06/23 14:12:20;;;;;;;;;;;20.00;99.90;;;;;;5095978;28;19929;-73
2023/06/23 14:14:45;;;;;;;;;;;19.90;99.90;;;;;;5096378;28;19916;-72
2023/06/23 14:17:11;;;;;;;;;;;19.90;99.90;;;;;;5094833;28;19904;-73
2023/06/23 14:19:37;;;;;;;;;;;19.70;99.90;;;;;;5094711;28;20289;-72
2023/06/23 14:22:03;;;;;;;;;;;19.70;99.90;;;;;;5104633;28;19941;-72
2023/06/23 14:24:29;;;;;;;;;;;19.70;99.90;;;;;;5116528;28;20006;-72
2023/06/23 14:26:55;;;;;;;;;;;19.60;99.90;;;;;;5109087;28;19908;-72
2023/06/23 14:29:20;;;;;;;;;;;19.50;99.90;;;;;;5115762;28;20388;-72
2023/06/23 14:31:47;;;;;;;;;;;19.50;99.90;;;;;;5097509;28;20388;-72
2023/06/23 14:34:13;;;;;;;;;;;19.50;99.90;;;;;;5115470;28;20373;-72
2023/06/23 14:36:39;;;;;;;;;;;19.50;99.90;;;;;;5116034;28;19911;-73
2023/06/23 14:39:04;;;;;;;;;;;19.60;99.90;;;;;;5102243;28;19912;-72
2023/06/23 14:41:30;;;;;;;;;;;19.60;99.90;;;;;;5109945;28;19907;-72
2023/06/23 14:43:55;;;;;;;;;;;19.70;99.90;;;;;;5101549;28;19912;-71
2023/06/23 14:46:21;;;;;;;;;;;19.70;99.90;;;;;;5115555;28;20002;-72
2023/06/23 14:48:46;;;;;;;;;;;19.70;99.90;;;;;;5096020;28;19943;-72
2023/06/23 14:51:15;;;;;;;;;;;19.70;99.90;;;;;;5110801;28;19912;-72